PTAO2: Poteau River, Poteau, OK

                                SHEF ID:       PTAO2     Poteau River at Poteau, OK
STATION TYPE:
Regulating: Stage = 20.00, Flow = 7395

PRECIP STAGE RIV-FLOW VOLTAGE BAT-LOAD
in ft cfs volt volt
Ccp-Rev Ccp-Rev Ccp-Rev Ccp-Rev Ccp-Rev
(America/Chicago)
05/01 00:00 0.00 12.79 3454 12.90 12.46
05/01 01:00 0.00 12.78 3449 12.88 12.44
05/01 02:00 0.00 12.76 3439 12.86 12.40
05/01 03:00 0.00 12.72 3418 12.86 12.40
05/01 04:00 0.00 12.69 3403 12.83 12.37
05/01 05:00 0.00 12.64 3378 12.82 12.35
05/01 06:00 0.00 12.62 3368 12.80 12.34
05/01 07:00 0.00 12.60 3358 12.83 12.33
05/01 08:00 0.00 12.55 3333 14.38 12.92
05/01 09:00 0.00 12.51 3313 14.12 13.23
05/01 10:00 0.00 12.49 3303 13.53 13.05
05/01 11:00 0.00 12.47 3294 13.42 12.94
05/01 12:00 0.00 12.44 3279 13.36 12.86
05/01 13:00 0.00 12.41 3264 13.32 12.83
05/01 14:00 0.00 12.34 3229 13.32 12.83
05/01 15:00 0.00 12.25 3185 13.26 12.76
05/01 16:00 0.00 12.10 3112 13.26 12.76
05/01 17:00 0.00 11.92 3025 13.29 12.71
05/01 18:00 0.00 11.68 2911 13.39 12.80
05/01 19:00 0.00 11.49 2822 13.50 12.85
05/01 20:00 0.00 11.25 2712 13.17 12.75
05/01 21:00 0.00 11.05 2640 13.03 12.58
05/01 22:00 0.00 10.85 2569 12.95 12.47
05/01 23:00 0.00 10.67 2505 12.90 12.44
Data processed at Sat 02May2026 04:48 GMT

NOTICE: If you are parsing this page

Please convert to using our Data API. Starting early 2026 we will be migrating to: https://water.usace.army.mil with modern pages rendered in JavaScript. When this migration completes you will no longer be able to scrape this page! CWMSDataAPI (CDA)

Timeseries IDs (TSIDs)

TSIDs used from left to right in the data table
POTE.Precip-Inc.Total.1Hour.1Hour.Ccp-Rev
POTE.Stage.Inst.1Hour.0.Ccp-Rev
POTE.Flow.Inst.1Hour.0.Ccp-Rev
POTE.Volt-Battery.Inst.1Hour.0.Ccp-Rev
POTE.Volt-Battery Load.Inst.1Hour.0.Ccp-Rev

                            

All information presented herein is the property of the government of the United States of America and may be revised or deleted at any time without prior notice. Dissemination of this information without the expressed written consent of the Public Affairs Office, Tulsa District U.S. Army Corps of Engineers is strictly prohibited. These data are gathered electronically and, as presented, have NOT undergone any form of quality control. These data are NOT guaranteed to be valid or correct.